createdAt,value
2022-09-10T00:01:59.794Z,98829.40
2022-09-10T00:04:28.057Z,98830.60
2022-09-10T00:06:55.675Z,98829.80
2022-09-10T00:09:23.468Z,98828.20
2022-09-10T00:11:50.104Z,98825.20
2022-09-10T00:14:21.886Z,98824.20
2022-09-10T00:16:49.702Z,98827.80
2022-09-10T00:19:17.044Z,98823.80
2022-09-10T00:21:46.900Z,98815.20
2022-09-10T00:24:14.124Z,98813.60
2022-09-10T00:26:40.761Z,98810.00
2022-09-10T00:29:11.594Z,98813.60
2022-09-10T00:31:38.877Z,98813.00
2022-09-10T00:34:06.236Z,98810.60
2022-09-10T00:36:39.940Z,98805.00
2022-09-10T00:39:15.576Z,98806.80
2022-09-10T00:41:45.635Z,98803.80
2022-09-10T00:44:39.831Z,98802.40
2022-09-10T00:47:12.000Z,98802.00
2022-09-10T00:49:45.152Z,98800.00
2022-09-10T00:52:12.887Z,98794.80
2022-09-10T00:54:43.040Z,98786.60
2022-09-10T00:57:16.913Z,98790.60
2022-09-10T00:59:50.009Z,98783.40
2022-09-10T01:02:16.672Z,98787.60
2022-09-10T01:04:44.004Z,98785.00
2022-09-10T01:07:12.312Z,98781.60
2022-09-10T01:09:40.377Z,98779.80
2022-09-10T01:12:58.057Z,98780.60
2022-09-10T01:15:48.053Z,98769.60
2022-09-10T01:18:50.974Z,98765.20
2022-09-10T01:21:36.989Z,98765.20
2022-09-10T01:24:26.149Z,98768.00
2022-09-10T01:27:34.185Z,98773.00
2022-09-10T01:30:14.728Z,98771.00
2022-09-10T01:33:09.764Z,98774.20
2022-09-10T01:35:44.560Z,98767.40
2022-09-10T01:38:27.296Z,98771.20
2022-09-10T01:40:55.206Z,98767.20
2022-09-10T01:43:22.951Z,98760.20
2022-09-10T01:45:52.241Z,98762.80
2022-09-10T01:48:30.442Z,98760.80
2022-09-10T01:51:38.534Z,98758.40
2022-09-10T01:55:06.412Z,98752.00
2022-09-10T01:57:35.774Z,98747.20
2022-09-10T02:00:12.313Z,98746.60
2022-09-10T02:03:11.972Z,98741.00
2022-09-10T02:05:43.534Z,98735.00
2022-09-10T02:08:17.091Z,98728.80
2022-09-10T02:13:39.116Z,98732.60
2022-09-10T02:16:12.511Z,98726.20
2022-09-10T02:18:40.145Z,98723.40
2022-09-10T02:21:07.197Z,98720.60
2022-09-10T02:23:45.160Z,98722.00
2022-09-10T02:26:14.395Z,98717.40
2022-09-10T02:28:43.602Z,98731.80
2022-09-10T02:31:10.468Z,98742.20
2022-09-10T02:33:37.001Z,98745.60
2022-09-10T02:36:04.012Z,98745.20
2022-09-10T02:38:30.425Z,98745.80
2022-09-10T02:40:59.220Z,98743.80
2022-09-10T02:43:29.652Z,98742.40
2022-09-10T02:45:58.184Z,98738.80
2022-09-10T02:48:26.515Z,98749.60
2022-09-10T02:50:54.356Z,98752.80
2022-09-10T02:53:21.075Z,98748.60
2022-09-10T02:55:48.565Z,98748.60
2022-09-10T02:58:16.716Z,98752.00
2022-09-10T03:00:45.321Z,98749.40
2022-09-10T03:03:12.477Z,98748.60
2022-09-10T03:05:39.073Z,98746.60
2022-09-10T03:08:06.601Z,98746.40
2022-09-10T03:10:33.273Z,98744.20
2022-09-10T03:13:00.396Z,98741.40
2022-09-10T03:15:28.315Z,98735.40
2022-09-10T03:17:54.929Z,98737.40
2022-09-10T03:20:22.987Z,98735.20
2022-09-10T03:22:51.444Z,98732.00
2022-09-10T03:25:19.563Z,98725.80
2022-09-10T03:27:46.116Z,98723.20
2022-09-10T03:30:13.074Z,98724.00
2022-09-10T03:32:39.700Z,98727.20
2022-09-10T03:35:06.544Z,98722.60
2022-09-10T03:37:33.035Z,98719.00
2022-09-10T03:39:59.536Z,98720.00
2022-09-10T03:42:25.952Z,98722.40
2022-09-10T03:44:52.402Z,98722.00
2022-09-10T03:47:18.813Z,98719.40
2022-09-10T03:49:45.263Z,98716.00
2022-09-10T03:52:12.783Z,98718.20
2022-09-10T03:54:40.120Z,98712.80
2022-09-10T03:57:06.553Z,98708.40
2022-09-10T03:59:33.020Z,98706.40
2022-09-10T04:01:59.512Z,98702.60
2022-09-10T04:04:26.317Z,98696.00
2022-09-10T04:06:53.786Z,98694.00
2022-09-10T04:09:20.550Z,98687.20
2022-09-10T04:11:47.033Z,98681.20
2022-09-10T04:14:13.776Z,98680.00
2022-09-10T04:16:40.323Z,98680.20
2022-09-10T04:19:06.820Z,98672.80
2022-09-10T04:21:33.268Z,98671.60
2022-09-10T04:24:00.594Z,98678.60
2022-09-10T04:26:27.023Z,98684.00
2022-09-10T04:28:53.633Z,98685.80
2022-09-10T04:31:20.429Z,98679.80
2022-09-10T04:33:46.972Z,98683.00
2022-09-10T04:36:14.259Z,98685.60
2022-09-10T04:38:42.091Z,98692.00
2022-09-10T04:41:09.660Z,98686.40
2022-09-10T04:43:37.912Z,98690.60
2022-09-10T04:46:04.472Z,98681.60
2022-09-10T04:48:33.071Z,98684.00
2022-09-10T04:51:15.776Z,98682.20
2022-09-10T04:53:43.185Z,98684.60
2022-09-10T04:56:09.868Z,98679.60
2022-09-10T04:58:38.852Z,98671.20
2022-09-10T05:01:05.750Z,98662.20
2022-09-10T05:03:32.336Z,98662.80
2022-09-10T05:05:59.002Z,98668.00
2022-09-10T05:08:25.421Z,98670.20
2022-09-10T05:10:51.903Z,98668.00
2022-09-10T05:13:19.026Z,98672.60
2022-09-10T05:15:46.053Z,98670.20
2022-09-10T05:18:12.596Z,98669.20
2022-09-10T05:20:39.143Z,98670.60
2022-09-10T05:23:05.648Z,98669.40
2022-09-10T05:25:32.708Z,98661.20
2022-09-10T05:28:01.077Z,98661.00
2022-09-10T05:30:32.569Z,98657.80
2022-09-10T05:33:01.328Z,98662.80
2022-09-10T05:47:43.957Z,98652.60
2022-09-10T05:50:11.317Z,98654.80
2022-09-10T05:52:37.945Z,98655.00
2022-09-10T05:55:05.238Z,98653.40
2022-09-10T05:57:31.993Z,98650.40
2022-09-10T06:00:00.207Z,98650.60
2022-09-10T06:02:26.967Z,98643.60
2022-09-10T06:04:53.510Z,98652.00
2022-09-10T06:07:19.965Z,98652.40
2022-09-10T06:09:46.429Z,98649.60
2022-09-10T06:12:12.862Z,98645.20
2022-09-10T06:14:39.463Z,98648.80
2022-09-10T06:17:05.957Z,98646.00
2022-09-10T06:19:32.418Z,98648.20
2022-09-10T06:21:59.071Z,98647.00
2022-09-10T06:24:25.798Z,98650.40
2022-09-10T06:26:52.293Z,98650.80
2022-09-10T06:29:19.556Z,98651.40
2022-09-10T06:31:47.553Z,98653.00
2022-09-10T06:34:15.838Z,98654.00
2022-09-10T06:36:43.658Z,98658.80
2022-09-10T06:39:10.891Z,98659.80
2022-09-10T06:41:37.488Z,98666.00
2022-09-10T06:44:04.044Z,98670.40
2022-09-10T06:49:18.766Z,98682.20
2022-09-10T06:51:45.257Z,98687.20
2022-09-10T06:54:12.749Z,98699.00
2022-09-10T06:56:39.329Z,98700.40
2022-09-10T06:59:05.823Z,98695.60
2022-09-10T07:01:33.006Z,98686.80
2022-09-10T07:04:01.762Z,98684.80
2022-09-10T07:06:33.708Z,98689.00
2022-09-10T07:09:00.976Z,98699.40
2022-09-10T07:11:30.300Z,98699.00
2022-09-10T07:13:56.786Z,98700.00
2022-09-10T07:16:26.693Z,98698.80
2022-09-10T07:18:57.505Z,98698.40
2022-09-10T07:21:27.437Z,98700.20
2022-09-10T07:24:01.196Z,98699.80
2022-09-10T07:26:28.678Z,98702.80
2022-09-10T07:28:56.780Z,98702.60
2022-09-10T07:31:28.185Z,98704.80
2022-09-10T07:33:57.602Z,98697.80
2022-09-10T07:36:25.024Z,98699.00
2022-09-10T07:38:54.701Z,98701.00
2022-09-10T07:41:21.949Z,98695.60
2022-09-10T07:43:52.201Z,98698.00
2022-09-10T07:46:21.111Z,98693.60
2022-09-10T07:48:52.460Z,98693.80
2022-09-10T07:51:19.405Z,98691.40
2022-09-10T07:53:50.566Z,98687.00
2022-09-10T07:56:17.562Z,98683.00
2022-09-10T07:58:44.857Z,98681.80
2022-09-10T08:01:12.906Z,98678.20
2022-09-10T08:03:40.873Z,98683.60
2022-09-10T08:06:09.476Z,98687.80
2022-09-10T08:08:39.787Z,98688.40
2022-09-10T08:11:12.719Z,98689.20
2022-09-10T08:13:41.668Z,98689.00
2022-09-10T08:16:15.216Z,98694.20
2022-09-10T08:18:43.665Z,98691.20
2022-09-10T08:21:10.857Z,98690.60
2022-09-10T08:23:39.699Z,98684.80
2022-09-10T08:26:08.209Z,98683.60
2022-09-10T08:28:38.580Z,98679.40
2022-09-10T08:31:08.994Z,98674.20
2022-09-10T08:33:38.206Z,98671.60
2022-09-10T08:36:07.888Z,98668.60
2022-09-10T08:38:40.131Z,98664.00
2022-09-10T08:41:32.601Z,98662.60
2022-09-10T08:44:05.449Z,98664.40
2022-09-10T08:46:43.193Z,98662.20
2022-09-10T08:49:34.085Z,98657.00
2022-09-10T08:52:21.310Z,98661.00
2022-09-10T08:54:56.979Z,98660.20
2022-09-10T08:58:11.460Z,98661.00
2022-09-10T09:00:41.678Z,98654.80
2022-09-10T09:03:33.841Z,98649.20
2022-09-10T09:06:09.580Z,98645.40
2022-09-10T09:08:48.235Z,98637.60
2022-09-10T09:11:59.599Z,98629.40
2022-09-10T09:15:09.106Z,98628.20
2022-09-10T09:18:20.418Z,98633.40
2022-09-10T09:20:54.501Z,98638.60
2022-09-10T09:24:02.804Z,98645.60
2022-09-10T09:26:38.228Z,98644.20
2022-09-10T09:29:19.099Z,98640.20
2022-09-10T09:32:00.496Z,98640.80
2022-09-10T09:34:44.198Z,98636.40
2022-09-10T09:37:29.415Z,98634.40
2022-09-10T09:40:33.897Z,98631.20
2022-09-10T09:43:31.746Z,98630.40
2022-09-10T09:45:59.888Z,98626.20
2022-09-10T09:48:38.837Z,98622.20
2022-09-10T09:51:10.957Z,98624.80
2022-09-10T09:53:38.022Z,98616.60
2022-09-10T09:56:13.170Z,98619.80
2022-09-10T09:58:49.343Z,98618.00
2022-09-10T10:01:21.341Z,98617.40
2022-09-10T10:04:02.945Z,98621.00
2022-09-10T10:06:33.220Z,98618.80
2022-09-10T10:09:20.966Z,98619.80
2022-09-10T10:11:52.514Z,98619.00
2022-09-10T10:14:20.087Z,98622.60
2022-09-10T10:16:56.213Z,98622.00
2022-09-10T10:19:38.558Z,98621.40
2022-09-10T10:22:32.501Z,98617.00
2022-09-10T10:25:02.199Z,98610.60
2022-09-10T10:27:34.111Z,98608.80
2022-09-10T10:30:22.669Z,98607.00
2022-09-10T10:32:56.997Z,98606.80
2022-09-10T10:35:46.643Z,98603.40
2022-09-10T10:38:40.535Z,98600.40
2022-09-10T10:41:30.188Z,98604.20
2022-09-10T10:44:23.240Z,98603.60
2022-09-10T10:47:18.755Z,98603.00
2022-09-10T10:50:06.123Z,98605.00
2022-09-10T10:52:46.876Z,98608.40
2022-09-10T10:55:38.834Z,98610.20
2022-09-10T10:58:29.492Z,98615.40
2022-09-10T11:01:24.805Z,98612.60
2022-09-10T11:04:26.469Z,98612.00
2022-09-10T11:07:11.271Z,98617.00
2022-09-10T11:09:51.898Z,98619.20
2022-09-10T11:12:25.397Z,98619.80
2022-09-10T11:15:00.955Z,98619.20
2022-09-10T11:17:39.681Z,98617.80
2022-09-10T11:20:29.394Z,98619.80
2022-09-10T11:23:39.048Z,98617.20
2022-09-10T11:26:21.532Z,98613.00
2022-09-10T11:29:28.328Z,98603.00
2022-09-10T11:32:06.272Z,98600.00
2022-09-10T11:34:51.849Z,98601.20
2022-09-10T11:37:46.473Z,98603.20
2022-09-10T11:40:40.402Z,98598.60
2022-09-10T11:43:14.675Z,98605.40
2022-09-10T11:46:00.190Z,98603.60
2022-09-10T11:48:48.906Z,98601.20
2022-09-10T11:51:26.482Z,98600.20
2022-09-10T11:53:57.774Z,98597.40
2022-09-10T11:56:59.948Z,98595.00
2022-09-10T12:00:15.633Z,98591.80
2022-09-10T12:03:15.538Z,98593.00
2022-09-10T12:06:23.271Z,98592.40
2022-09-10T12:09:08.426Z,98589.80
2022-09-10T12:11:47.830Z,98587.20
2022-09-10T12:14:18.585Z,98588.00
2022-09-10T12:17:03.989Z,98587.00
2022-09-10T12:19:50.468Z,98588.40
2022-09-10T12:22:36.810Z,98587.20
2022-09-10T12:25:07.579Z,98585.00
2022-09-10T12:27:47.612Z,98579.20
2022-09-10T12:30:35.139Z,98577.20
2022-09-10T12:33:22.139Z,98575.80
2022-09-10T12:35:50.672Z,98571.60
2022-09-10T12:38:45.657Z,98568.40
2022-09-10T12:41:36.513Z,98563.20
2022-09-10T12:44:36.439Z,98568.20
2022-09-10T12:47:12.027Z,98566.80
2022-09-10T12:49:51.672Z,98565.20
2022-09-10T12:52:50.832Z,98561.60
2022-09-10T12:55:57.777Z,98555.80
2022-09-10T12:58:48.862Z,98552.80
2022-09-10T13:01:46.388Z,98559.00
2022-09-10T13:04:36.916Z,98562.60
2022-09-10T13:07:20.959Z,98559.00
2022-09-10T13:10:00.919Z,98552.20
2022-09-10T13:12:29.389Z,98555.00
2022-09-10T13:15:00.612Z,98550.60
2022-09-10T13:17:51.214Z,98546.60
2022-09-10T13:20:23.398Z,98543.40
2022-09-10T13:23:21.423Z,98540.00
2022-09-10T13:25:51.000Z,98539.40
2022-09-10T13:28:29.955Z,98535.00
2022-09-10T13:31:21.757Z,98530.60
2022-09-10T13:34:11.251Z,98523.20
2022-09-10T13:37:04.938Z,98522.40
2022-09-10T13:40:29.082Z,98520.00
2022-09-10T13:43:15.151Z,98519.20
2022-09-10T13:45:51.846Z,98514.60
2022-09-10T13:48:27.525Z,98510.40
2022-09-10T13:51:15.425Z,98507.60
2022-09-10T13:53:47.020Z,98512.60
2022-09-10T13:56:26.698Z,98511.00
2022-09-10T13:59:00.801Z,98510.00
2022-09-10T14:01:56.368Z,98510.60
2022-09-10T14:04:31.513Z,98510.00
2022-09-10T14:07:13.163Z,98508.20
2022-09-10T14:09:51.692Z,98508.60
2022-09-10T14:12:23.528Z,98504.60
2022-09-10T14:14:56.789Z,98502.60
2022-09-10T14:17:31.429Z,98505.40
2022-09-10T14:20:01.487Z,98495.40
2022-09-10T14:22:32.095Z,98499.60
2022-09-10T14:25:04.318Z,98499.20
2022-09-10T14:27:34.887Z,98495.00
2022-09-10T14:30:29.884Z,98496.00
2022-09-10T14:33:35.884Z,98492.80
2022-09-10T14:36:34.335Z,98494.20
2022-09-10T14:39:16.836Z,98492.80
2022-09-10T14:41:45.083Z,98491.00
2022-09-10T14:44:14.354Z,98490.80
2022-09-10T14:46:57.296Z,98484.20
2022-09-10T14:49:31.349Z,98488.20
2022-09-10T14:51:59.022Z,98487.20
2022-09-10T14:54:32.044Z,98494.80
2022-09-10T14:57:04.017Z,98488.40
2022-09-10T14:59:34.596Z,98488.40
2022-09-10T15:02:06.098Z,98488.40
2022-09-10T15:04:32.541Z,98488.40
2022-09-10T15:07:00.981Z,98489.20
2022-09-10T15:09:29.743Z,98490.00
2022-09-10T15:12:23.977Z,98490.60
2022-09-10T15:14:51.825Z,98485.80
2022-09-10T15:17:19.064Z,98490.40
2022-09-10T15:19:49.994Z,98490.20
2022-09-10T15:22:29.536Z,98489.40
2022-09-10T15:25:12.295Z,98489.40
2022-09-10T15:27:39.244Z,98488.40
2022-09-10T15:30:11.169Z,98489.20
2022-09-10T15:32:37.822Z,98485.60
2022-09-10T15:35:05.339Z,98482.80
2022-09-10T15:37:31.879Z,98482.20
2022-09-10T15:39:58.637Z,98482.20
2022-09-10T15:42:25.239Z,98487.60
2022-09-10T15:44:51.695Z,98487.60
2022-09-10T15:47:18.236Z,98486.60
2022-09-10T15:49:44.686Z,98491.20
2022-09-10T15:52:11.142Z,98488.40
2022-09-10T15:54:37.710Z,98493.60
2022-09-10T15:57:04.399Z,98496.40
2022-09-10T15:59:30.928Z,98503.60
2022-09-10T16:01:57.567Z,98503.20
2022-09-10T16:04:25.031Z,98506.20
2022-09-10T16:06:51.470Z,98503.20
2022-09-10T16:09:17.960Z,98509.40
2022-09-10T16:11:45.408Z,98507.80
2022-09-10T16:14:15.833Z,98506.20
2022-09-10T16:16:42.387Z,98507.20
2022-09-10T16:19:12.978Z,98509.40
2022-09-10T16:21:39.456Z,98513.60
2022-09-10T16:24:07.530Z,98514.20
2022-09-10T16:26:38.911Z,98511.40
2022-09-10T16:29:12.851Z,98511.60
2022-09-10T16:31:39.764Z,98511.20
2022-09-10T16:34:11.640Z,98510.20
2022-09-10T16:36:39.325Z,98511.40
2022-09-10T16:39:12.468Z,98510.40
2022-09-10T16:41:45.358Z,98512.00
2022-09-10T16:44:14.816Z,98510.80
2022-09-10T16:46:42.340Z,98509.40
2022-09-10T16:49:14.407Z,98506.00
2022-09-10T16:51:42.997Z,98504.20
2022-09-10T16:54:11.206Z,98500.60
2022-09-10T16:56:43.996Z,98498.40
2022-09-10T16:59:16.231Z,98495.80
2022-09-10T17:01:44.871Z,98496.20
2022-09-10T17:04:23.426Z,98493.40
2022-09-10T17:06:52.714Z,98488.60
2022-09-10T17:09:19.336Z,98487.00
2022-09-10T17:11:45.954Z,98489.40
2022-09-10T17:14:12.412Z,98490.00
2022-09-10T17:16:41.621Z,98488.40
2022-09-10T17:19:15.451Z,98489.40
2022-09-10T17:21:47.372Z,98490.20
2022-09-10T17:24:14.124Z,98488.60
2022-09-10T17:26:41.572Z,98486.60
2022-09-10T17:29:14.745Z,98488.80
2022-09-10T17:31:42.557Z,98487.60
2022-09-10T17:34:13.156Z,98486.60
2022-09-10T17:36:42.508Z,98489.00
2022-09-10T17:39:09.686Z,98486.60
2022-09-10T17:41:37.312Z,98485.40
2022-09-10T17:44:04.048Z,98486.20
2022-09-10T17:46:31.268Z,98488.40
2022-09-10T17:49:02.146Z,98487.00
2022-09-10T17:51:32.594Z,98487.20
2022-09-10T17:53:59.153Z,98494.60
2022-09-10T17:56:26.859Z,98491.00
2022-09-10T17:59:03.478Z,98490.60
2022-09-10T18:01:38.934Z,98495.80
2022-09-10T18:04:08.289Z,98494.40
2022-09-10T18:06:36.430Z,98490.60
2022-09-10T18:09:04.822Z,98491.20
2022-09-10T18:11:39.032Z,98492.60
2022-09-10T18:14:07.143Z,98491.00
2022-09-10T18:16:36.412Z,98490.00
2022-09-10T18:19:14.287Z,98490.40
2022-09-10T18:21:43.716Z,98494.20
2022-09-10T18:24:22.545Z,98489.40
2022-09-10T18:26:51.878Z,98489.40
2022-09-10T18:29:25.186Z,98490.60
2022-09-10T18:31:58.313Z,98491.20
2022-09-10T18:34:28.248Z,98494.20
2022-09-10T18:36:58.607Z,98492.20
2022-09-10T18:39:28.019Z,98495.40
2022-09-10T18:41:55.272Z,98490.40
2022-09-10T18:44:25.905Z,98489.40
2022-09-10T18:46:53.515Z,98490.60
2022-09-10T18:49:24.334Z,98486.40
2022-09-10T18:51:53.409Z,98491.60
2022-09-10T18:54:22.219Z,98492.00
2022-09-10T18:56:49.903Z,98493.60
2022-09-10T18:59:22.134Z,98495.20
2022-09-10T19:01:51.998Z,98501.00
2022-09-10T19:04:26.791Z,98502.00
2022-09-10T19:06:54.183Z,98501.80
2022-09-10T19:09:29.944Z,98502.80
2022-09-10T19:11:59.070Z,98502.20
2022-09-10T19:14:31.875Z,98503.20
2022-09-10T19:17:00.888Z,98500.80
2022-09-10T19:19:31.716Z,98499.80
2022-09-10T19:22:03.638Z,98498.00
2022-09-10T19:24:54.138Z,98502.00
2022-09-10T19:27:17.509Z,98496.20
2022-09-10T19:29:44.409Z,98501.00
2022-09-10T19:32:11.705Z,98499.00
2022-09-10T19:34:38.937Z,98494.00
2022-09-10T19:37:07.052Z,98485.80
2022-09-10T19:39:33.643Z,98484.80
2022-09-10T19:42:00.534Z,98478.40
2022-09-10T19:44:27.418Z,98478.80
2022-09-10T19:46:53.842Z,98475.60
2022-09-10T19:49:20.282Z,98474.40
2022-09-10T19:51:46.745Z,98473.80
2022-09-10T19:54:14.126Z,98472.20
2022-09-10T19:56:42.578Z,98469.40
2022-09-10T19:59:09.912Z,98470.00
2022-09-10T20:01:40.306Z,98467.80
2022-09-10T20:04:10.684Z,98472.40
2022-09-10T20:06:38.775Z,98469.80
2022-09-10T20:09:08.570Z,98468.20
2022-09-10T20:11:35.645Z,98464.20
2022-09-10T20:14:14.358Z,98465.60
2022-09-10T20:16:44.274Z,98466.80
2022-09-10T20:19:14.503Z,98465.00
2022-09-10T20:21:42.259Z,98464.60
2022-09-10T20:24:10.130Z,98465.00
2022-09-10T20:26:40.101Z,98461.20
2022-09-10T20:29:11.346Z,98461.60
2022-09-10T20:31:41.225Z,98459.60
2022-09-10T20:34:13.725Z,98456.40
2022-09-10T20:36:42.355Z,98454.20
2022-09-10T20:39:17.240Z,98454.60
2022-09-10T20:41:45.546Z,98459.20
2022-09-10T20:44:15.177Z,98456.00
2022-09-10T20:46:43.224Z,98456.60
2022-09-10T20:49:13.081Z,98458.00
2022-09-10T20:51:40.770Z,98460.40
2022-09-10T20:54:12.961Z,98458.60
2022-09-10T20:56:40.495Z,98457.20
2022-09-10T20:59:07.294Z,98456.60
2022-09-10T21:01:33.925Z,98460.00
2022-09-10T21:04:01.458Z,98456.60
2022-09-10T21:06:31.585Z,98459.20
2022-09-10T21:08:59.444Z,98457.80
2022-09-10T21:11:30.709Z,98454.60
2022-09-10T21:14:00.130Z,98451.00
2022-09-10T21:16:33.202Z,98449.20
2022-09-10T21:19:07.806Z,98453.60
2022-09-10T21:21:35.954Z,98451.00
2022-09-10T21:24:18.938Z,98452.80
2022-09-10T21:26:45.876Z,98450.60
2022-09-10T21:29:16.950Z,98448.80
2022-09-10T21:31:45.245Z,98449.00
2022-09-10T21:34:12.773Z,98442.40
2022-09-10T21:36:41.176Z,98447.00
2022-09-10T21:39:17.392Z,98447.80
2022-09-10T21:41:50.080Z,98446.40
2022-09-10T21:44:23.150Z,98446.40
2022-09-10T21:46:50.589Z,98449.80
2022-09-10T21:49:18.411Z,98451.00
2022-09-10T21:51:45.312Z,98455.20
2022-09-10T21:54:20.619Z,98455.80
2022-09-10T21:56:49.065Z,98455.80
2022-09-10T21:59:16.119Z,98454.20
2022-09-10T22:01:49.924Z,98456.00
2022-09-10T22:04:22.181Z,98452.20
2022-09-10T22:06:49.245Z,98457.00
2022-09-10T22:09:16.863Z,98458.80
2022-09-10T22:11:47.224Z,98458.40
2022-09-10T22:14:18.835Z,98457.80
2022-09-10T22:16:45.703Z,98458.60
2022-09-10T22:19:19.635Z,98460.40
2022-09-10T22:21:46.333Z,98462.20
2022-09-10T22:24:15.087Z,98461.40
2022-09-10T22:26:44.544Z,98460.40
2022-09-10T22:29:12.591Z,98461.60
2022-09-10T22:31:39.169Z,98458.40
2022-09-10T22:34:15.885Z,98456.80
2022-09-10T22:36:45.120Z,98450.00
2022-09-10T22:39:21.051Z,98444.20
2022-09-10T22:41:50.056Z,98447.00
2022-09-10T22:44:20.344Z,98444.80
2022-09-10T22:46:47.645Z,98445.20
2022-09-10T22:49:16.112Z,98441.40
2022-09-10T22:51:43.285Z,98444.20
2022-09-10T22:54:10.816Z,98446.00
2022-09-10T22:56:37.341Z,98444.20
2022-09-10T22:59:04.585Z,98443.60
2022-09-10T23:01:36.636Z,98445.20
2022-09-10T23:04:05.836Z,98443.00
2022-09-10T23:06:34.557Z,98439.00
2022-09-10T23:09:17.817Z,98442.80
2022-09-10T23:11:45.498Z,98441.40
2022-09-10T23:14:22.137Z,98444.40
2022-09-10T23:16:50.834Z,98444.20
2022-09-10T23:19:26.318Z,98446.20
2022-09-10T23:21:55.112Z,98444.40
2022-09-10T23:24:24.483Z,98446.40
2022-09-10T23:26:51.593Z,98439.60
2022-09-10T23:29:18.296Z,98436.80
2022-09-10T23:31:48.341Z,98438.20
2022-09-10T23:34:18.595Z,98433.20
2022-09-10T23:36:48.163Z,98431.20
2022-09-10T23:39:21.501Z,98430.40
2022-09-10T23:41:49.939Z,98430.80
2022-09-10T23:44:17.349Z,98427.20
2022-09-10T23:46:44.725Z,98421.00
2022-09-10T23:49:12.928Z,98420.60
2022-09-10T23:51:39.888Z,98410.60
2022-09-10T23:54:06.828Z,98416.60
2022-09-10T23:56:33.316Z,98417.00
2022-09-10T23:59:00.048Z,98416.80
